Time;durP1;ratioP1;P1;durP2;ratioP2;P2;SDS_P1;SDS_P2;PMS_P1;PMS_P2;Temp;Humidity;BMP_temperature;BMP_pressure;BME280_temperature;BME280_humidity;BME280_pressure;Samples;Min_cycle;Max_cycle;Signal;HPM_P1;HPM_P2
2022/04/16 00:01:53;;;;;;;16.38;8.98;;;;;;;16.29;43.07;99565.19;5113022;28;20030;-46
2022/04/16 00:04:19;;;;;;;15.90;9.93;;;;;;;16.34;43.21;99570.63;5112889;28;20043;-46
2022/04/16 00:06:44;;;;;;;17.65;9.57;;;;;;;16.10;43.58;99563.81;5112846;28;20493;-46
2022/04/16 00:09:10;;;;;;;16.15;9.15;;;;;;;16.01;43.72;99561.53;5112904;28;20470;-46
2022/04/16 00:11:38;;;;;;;15.38;9.30;;;;;;;15.88;43.85;99575.28;5113001;28;20426;-47
2022/04/16 00:14:04;;;;;;;14.75;9.45;;;;;;;15.97;44.02;99570.31;5112831;28;20020;-46
2022/04/16 00:16:31;;;;;;;16.63;9.70;;;;;;;15.88;44.30;99577.13;5113128;28;20450;-47
2022/04/16 00:18:56;;;;;;;17.20;9.50;;;;;;;15.81;44.12;99577.28;5113026;28;20034;-47
2022/04/16 00:21:22;;;;;;;15.68;9.25;;;;;;;15.93;43.69;99572.66;5112933;28;20027;-47
2022/04/16 00:23:48;;;;;;;13.55;8.70;;;;;;;15.96;44.01;99584.78;5112800;28;20024;-48
2022/04/16 00:26:14;;;;;;;14.60;8.38;;;;;;;15.94;45.06;99593.09;5094481;28;20031;-47
2022/04/16 00:28:39;;;;;;;13.65;8.68;;;;;;;16.13;45.34;99596.34;5113040;28;20393;-48
2022/04/16 00:31:05;;;;;;;12.75;8.50;;;;;;;15.94;44.94;99598.44;5112731;28;20023;-45
2022/04/16 00:33:33;;;;;;;14.50;8.95;;;;;;;15.63;45.90;99595.19;5112826;28;20073;-46
2022/04/16 00:36:00;;;;;;;16.73;9.63;;;;;;;14.80;47.82;99607.19;5112403;28;20114;-47
2022/04/16 00:38:25;;;;;;;16.05;9.73;;;;;;;14.82;48.33;99605.91;5112620;28;20474;-47
2022/04/16 00:40:52;;;;;;;18.77;10.25;;;;;;;14.72;48.20;99608.38;5112485;28;20042;-46
2022/04/16 00:43:25;;;;;;;15.27;9.57;;;;;;;14.38;48.69;99607.28;5112460;28;20434;-47
2022/04/16 00:45:52;;;;;;;19.60;10.05;;;;;;;14.25;49.14;99609.13;5112349;28;20402;-47
2022/04/16 00:48:19;;;;;;;19.48;9.93;;;;;;;14.42;48.76;99601.22;5112666;28;20027;-47
2022/04/16 00:50:44;;;;;;;15.32;10.32;;;;;;;14.48;47.96;99608.31;5112508;28;20447;-47
2022/04/16 00:53:12;;;;;;;16.27;9.80;;;;;;;14.57;48.16;99610.69;5112177;28;20037;-47
2022/04/16 00:55:38;;;;;;;20.02;9.90;;;;;;;14.55;47.72;99602.84;5112273;28;20043;-48
2022/04/16 00:58:03;;;;;;;17.10;9.98;;;;;;;14.59;47.70;99611.28;5112333;28;20451;-49
2022/04/16 01:00:29;;;;;;;15.38;9.55;;;;;;;14.67;47.38;99610.91;5112190;28;20569;-51
2022/04/16 01:02:58;;;;;;;13.40;9.07;;;;;;;14.60;47.79;99607.53;5111347;28;20112;-48
2022/04/16 01:05:24;;;;;;;16.80;9.73;;;;;;;14.76;47.18;99604.16;5111707;28;20031;-51
2022/04/16 01:07:56;;;;;;;14.55;9.68;;;;;;;14.63;47.39;99596.38;5112114;28;20062;-50
2022/04/16 01:10:26;;;;;;;18.92;9.95;;;;;;;14.62;47.67;99603.59;5111907;28;20404;-49
2022/04/16 01:12:52;;;;;;;19.33;10.27;;;;;;;14.75;47.57;99607.88;5110919;28;20024;-48
2022/04/16 01:15:20;;;;;;;19.80;10.05;;;;;;;14.63;48.19;99613.25;5111567;28;20028;-49
2022/04/16 01:17:47;;;;;;;18.15;10.27;;;;;;;14.63;48.07;99609.75;5111617;28;20032;-47
2022/04/16 01:20:13;;;;;;;16.67;10.07;;;;;;;14.68;48.17;99607.19;5111532;28;20027;-51
2022/04/16 01:22:40;;;;;;;14.90;9.98;;;;;;;14.59;48.15;99611.28;5111436;28;20035;-48
2022/04/16 01:25:07;;;;;;;18.50;10.02;;;;;;;14.58;48.59;99599.75;5110930;28;20416;-49
2022/04/16 01:27:35;;;;;;;17.70;10.45;;;;;;;14.60;48.43;99599.50;5111424;28;20036;-50
2022/04/16 01:30:03;;;;;;;14.55;10.00;;;;;;;14.47;48.92;99596.00;5111523;28;20031;-50
2022/04/16 01:32:29;;;;;;;19.23;10.75;;;;;;;14.39;49.04;99588.31;5111131;28;20023;-50
2022/04/16 01:34:55;;;;;;;16.50;10.23;;;;;;;14.51;49.06;99601.69;5111007;28;20147;-48
2022/04/16 01:37:22;;;;;;;18.25;10.05;;;;;;;14.58;48.61;99585.53;5111215;28;20431;-49
2022/04/16 01:39:48;;;;;;;19.92;10.30;;;;;;;14.54;49.31;99595.06;5111173;28;20471;-51
2022/04/16 01:42:13;;;;;;;16.38;10.55;;;;;;;14.63;49.01;99593.69;5111059;28;20027;-49
2022/04/16 01:44:39;;;;;;;15.93;9.88;;;;;;;14.56;49.22;99582.25;5110281;28;20034;-47
2022/04/16 01:47:04;;;;;;;16.27;10.25;;;;;;;14.55;49.24;99586.00;5110443;28;20030;-48
2022/04/16 01:49:30;;;;;;;17.83;10.30;;;;;;;14.42;49.29;99582.47;5110905;28;20478;-49
2022/04/16 01:51:57;;;;;;;18.45;10.07;;;;;;;14.21;50.06;99583.06;5110816;28;20043;-47
2022/04/16 01:54:22;;;;;;;18.83;9.57;;;;;;;14.26;50.04;99580.50;5110635;28;20127;-48
2022/04/16 01:56:48;;;;;;;17.33;10.32;;;;;;;14.20;50.42;99576.91;5110245;28;20115;-47
2022/04/16 01:59:13;;;;;;;16.15;10.13;;;;;;;14.29;50.07;99577.34;5111617;28;20463;-48
2022/04/16 02:01:39;;;;;;;16.02;9.90;;;;;;;14.28;49.87;99573.06;5111695;28;20077;-48
2022/04/16 02:04:05;;;;;;;22.85;10.23;;;;;;;14.20;50.15;99573.38;5110865;28;20494;-47
2022/04/16 02:06:30;;;;;;;17.95;9.80;;;;;;;14.30;49.72;99572.81;5111296;28;20031;-48
2022/04/16 02:08:55;;;;;;;15.43;10.35;;;;;;;14.27;49.56;99568.75;5111427;28;20024;-48
2022/04/16 02:11:21;;;;;;;17.80;9.50;;;;;;;14.42;48.96;99565.59;5111540;28;20031;-47
2022/04/16 02:13:47;;;;;;;22.95;10.77;;;;;;;14.45;49.14;99562.47;5111094;28;20020;-48
2022/04/16 02:16:13;;;;;;;18.40;9.98;;;;;;;14.42;49.90;99566.41;5111409;28;20036;-47
2022/04/16 02:18:39;;;;;;;17.92;10.02;;;;;;;14.36;50.21;99564.69;5111122;28;20059;-48
2022/04/16 02:21:04;;;;;;;23.50;10.27;;;;;;;14.45;49.09;99565.97;5111416;28;20055;-50
2022/04/16 02:23:30;;;;;;;25.80;10.10;;;;;;;14.39;49.47;99564.22;5111180;28;20031;-49
2022/04/16 02:25:55;;;;;;;20.40;10.30;;;;;;;14.47;48.97;99565.72;5110945;28;20027;-49
2022/04/16 02:28:21;;;;;;;19.35;9.73;;;;;;;14.45;49.36;99559.81;5111027;28;20023;-47
2022/04/16 02:30:47;;;;;;;21.48;10.05;;;;;;;14.15;50.01;99555.34;5110912;28;20023;-47
2022/04/16 02:33:13;;;;;;;20.50;10.15;;;;;;;14.18;50.16;99556.75;5111165;28;20029;-47
2022/04/16 02:35:39;;;;;;;19.23;9.95;;;;;;;14.14;49.88;99550.22;5110829;28;20039;-50
2022/04/16 02:38:05;;;;;;;18.88;9.70;;;;;;;14.29;50.07;99545.22;5110844;28;20034;-49
2022/04/16 02:40:30;;;;;;;18.90;9.93;;;;;;;14.20;49.83;99541.28;5110979;28;20028;-48
2022/04/16 02:42:56;;;;;;;20.20;9.75;;;;;;;14.31;49.30;99545.00;5110713;28;20091;-47
2022/04/16 02:48:07;;;;;;;20.58;9.95;;;;;;;14.28;49.54;99535.59;5111232;28;20092;-49
2022/04/16 02:50:32;;;;;;;15.38;8.75;;;;;;;14.13;48.89;99544.06;5110621;28;20043;-48
2022/04/16 02:52:59;;;;;;;14.25;8.63;;;;;;;14.04;49.11;99538.22;5110934;28;20467;-47
2022/04/16 02:55:25;;;;;;;17.02;8.73;;;;;;;13.94;49.75;99531.84;5092343;28;20122;-49
2022/04/16 02:57:51;;;;;;;19.52;9.07;;;;;;;13.96;50.36;99541.25;5110690;28;20020;-49
2022/04/16 03:00:19;;;;;;;17.90;9.27;;;;;;;14.03;49.67;99543.81;5110414;28;20535;-49
2022/04/16 03:02:45;;;;;;;14.82;9.00;;;;;;;14.15;49.09;99543.84;5110825;28;20423;-50
2022/04/16 03:05:11;;;;;;;14.05;8.15;;;;;;;14.11;49.21;99542.66;5110411;28;20031;-48
2022/04/16 03:07:37;;;;;;;13.45;8.27;;;;;;;14.21;49.16;99537.56;5110737;28;20032;-48
2022/04/16 03:10:05;;;;;;;16.23;8.95;;;;;;;14.06;49.04;99533.47;5109989;28;20631;-48
2022/04/16 03:12:53;;;;;;;17.05;9.35;;;;;;;14.01;49.57;99527.19;5110109;28;20031;-49
2022/04/16 03:18:05;;;;;;;16.70;8.85;;;;;;;14.07;48.95;99542.31;5115330;28;20486;-47
2022/04/16 03:20:31;;;;;;;15.95;8.10;;;;;;;13.97;48.94;99544.72;5114975;28;20051;-49
2022/04/16 03:23:00;;;;;;;12.10;7.72;;;;;;;13.83;49.38;99552.16;5114628;28;20024;-47
2022/04/16 03:25:27;;;;;;;13.70;8.13;;;;;;;13.94;48.91;99554.03;5114670;28;20504;-48
2022/04/16 03:27:53;;;;;;;13.60;8.13;;;;;;;13.98;49.36;99546.38;5114910;28;20066;-49
2022/04/16 03:30:19;;;;;;;12.75;8.35;;;;;;;13.80;49.73;99539.25;5114635;28;20114;-50
2022/04/16 03:32:47;;;;;;;12.82;8.50;;;;;;;13.78;49.94;99544.81;5114175;28;20055;-51
2022/04/16 03:35:13;;;;;;;13.55;7.82;;;;;;;13.63;49.81;99552.44;5114232;28;20137;-50
2022/04/16 03:37:38;;;;;;;14.73;8.00;;;;;;;13.67;49.67;99559.00;5114489;28;20465;-50
2022/04/16 03:40:05;;;;;;;12.73;8.20;;;;;;;13.61;49.86;99563.41;5114333;28;20032;-48
2022/04/16 03:42:34;;;;;;;11.50;7.95;;;;;;;13.68;49.96;99566.75;5113676;28;20482;-50
2022/04/16 03:45:00;;;;;;;14.95;8.60;;;;;;;13.92;49.28;99564.16;5113839;28;20035;-50
2022/04/16 03:47:29;;;;;;;17.95;7.80;;;;;;;14.01;48.61;99561.94;5114030;28;20027;-49
2022/04/16 03:49:55;;;;;;;15.30;8.15;;;;;;;14.04;48.71;99562.31;5113915;28;20032;-49
2022/04/16 03:52:20;;;;;;;16.38;8.50;;;;;;;13.93;49.32;99565.78;5114184;28;20069;-49
2022/04/16 04:00:14;;;;;;;17.52;9.23;;;;;;;14.19;49.68;99567.22;5114449;28;20555;-47
2022/04/16 04:02:39;;;;;;;22.13;8.85;;;;;;;14.12;49.98;99571.84;5113622;28;20076;-47
2022/04/16 04:05:06;;;;;;;24.48;9.63;;;;;;;14.31;49.55;99579.81;5113393;28;20023;-48
2022/04/16 04:07:32;;;;;;;19.50;8.80;;;;;;;14.40;50.04;99579.22;5113875;28;20037;-47
2022/04/16 04:09:58;;;;;;;16.65;8.70;;;;;;;14.50;49.56;99572.47;5113641;28;20032;-49
2022/04/16 04:12:24;;;;;;;13.82;8.98;;;;;;;14.71;49.38;99576.44;5113584;28;20034;-47
2022/04/16 04:14:49;;;;;;;15.95;9.13;;;;;;;14.97;48.76;99580.50;5112633;28;20019;-48
2022/04/16 04:17:15;;;;;;;17.02;8.68;;;;;;;15.36;47.86;99575.34;5113543;28;20027;-47
2022/04/16 04:19:42;;;;;;;19.50;8.70;;;;;;;15.49;47.57;99564.34;5113375;28;20027;-48
2022/04/16 04:22:09;;;;;;;17.45;9.13;;;;;;;15.72;46.49;99581.38;5113505;28;20015;-46
2022/04/16 04:24:39;;;;;;;13.63;8.55;;;;;;;15.94;45.09;99590.41;5113170;28;20103;-50
2022/04/16 04:27:06;;;;;;;28.15;16.42;;;;;;;16.09;44.34;99579.13;5112744;28;20023;-49
2022/04/16 04:29:33;;;;;;;17.35;9.30;;;;;;;16.19;44.96;99590.00;5113434;28;20454;-48
2022/04/16 04:31:58;;;;;;;14.32;8.10;;;;;;;16.22;44.02;99594.91;5113499;28;20024;-50
2022/04/16 04:34:24;;;;;;;16.30;8.02;;;;;;;16.21;45.08;99592.44;5112814;28;20016;-48
2022/04/16 04:36:49;;;;;;;17.65;9.75;;;;;;;16.27;44.35;99596.03;5112548;28;20030;-48
2022/04/16 04:39:15;;;;;;;14.82;8.10;;;;;;;16.44;43.54;99594.16;5112320;28;20097;-50
2022/04/16 04:41:44;;;;;;;14.88;7.30;;;;;;;15.93;45.54;99599.50;5113220;28;20416;-49
2022/04/16 04:44:11;;;;;;;14.35;7.47;;;;;;;16.07;47.41;99602.69;5113085;28;20107;-49
2022/04/16 04:46:37;;;;;;;13.88;6.60;;;;;;;16.06;45.72;99601.06;5112740;28;20023;-50
2022/04/16 04:49:03;;;;;;;11.35;6.45;;;;;;;16.19;45.47;99586.50;5113224;28;20028;-51
2022/04/16 04:51:28;;;;;;;15.40;6.68;;;;;;;16.88;45.04;99596.13;5113365;28;20026;-48
2022/04/16 04:53:54;;;;;;;10.05;6.28;;;;;;;17.25;43.67;99593.66;5112842;28;20038;-48
2022/04/16 04:56:19;;;;;;;11.02;6.18;;;;;;;17.51;41.96;99602.81;5112449;28;20436;-51
2022/04/16 04:58:44;;;;;;;12.10;6.00;;;;;;;17.94;40.97;99601.13;5112626;28;20410;-49
2022/04/16 05:01:10;;;;;;;9.10;6.15;;;;;;;18.05;40.81;99602.03;5112473;28;20023;-47
2022/04/16 05:03:35;;;;;;;10.57;6.57;;;;;;;17.86;39.79;99598.91;5112172;28;20396;-47
2022/04/16 05:06:01;;;;;;;8.73;6.00;;;;;;;17.83;40.43;99610.13;5112282;28;20551;-48
2022/04/16 05:08:26;;;;;;;10.93;6.50;;;;;;;18.17;40.07;99607.25;5112070;28;20426;-47
2022/04/16 05:10:51;;;;;;;17.10;9.00;;;;;;;18.49;39.34;99607.22;5112080;28;20501;-48
2022/04/16 05:13:17;;;;;;;12.75;8.32;;;;;;;18.78;38.71;99612.25;5111039;28;20023;-48
2022/04/16 05:15:42;;;;;;;18.75;11.75;;;;;;;18.81;38.17;99617.16;5111252;28;20019;-48
2022/04/16 05:18:08;;;;;;;15.68;9.90;;;;;;;19.02;37.74;99614.56;5111198;28;20077;-49
2022/04/16 05:20:33;;;;;;;15.93;9.98;;;;;;;19.06;37.98;99611.09;5111125;28;20095;-47
2022/04/16 05:22:58;;;;;;;14.02;8.98;;;;;;;19.43;37.18;99601.25;5111294;28;20026;-48
2022/04/16 05:25:24;;;;;;;9.38;6.45;;;;;;;19.41;37.16;99608.78;5110944;28;20103;-50
2022/04/16 05:27:49;;;;;;;10.55;6.25;;;;;;;19.50;36.50;99608.00;5111120;28;20023;-47
2022/04/16 05:30:22;;;;;;;11.02;6.93;;;;;;;19.35;36.98;99610.66;5110618;28;20046;-47
2022/04/16 05:32:52;;;;;;;12.98;6.70;;;;;;;19.52;36.51;99608.56;5111080;28;20023;-48
2022/04/16 05:35:18;;;;;;;10.70;6.45;;;;;;;19.40;36.56;99612.56;5110785;28;20031;-48
2022/04/16 05:37:44;;;;;;;10.80;6.15;;;;;;;19.47;36.48;99605.03;5109995;28;20019;-47
2022/04/16 05:40:10;;;;;;;9.02;5.95;;;;;;;19.21;36.33;99586.06;5110426;28;20031;-49
2022/04/16 05:42:40;;;;;;;8.38;5.82;;;;;;;19.46;36.33;99609.63;5110102;28;20030;-50
2022/04/16 05:45:06;;;;;;;11.07;5.88;;;;;;;19.69;35.89;99607.53;5110047;28;20015;-49
2022/04/16 05:47:34;;;;;;;13.57;8.20;;;;;;;19.39;36.36;99606.34;5110226;28;20020;-47
2022/04/16 05:50:00;;;;;;;8.43;6.25;;;;;;;19.90;35.54;99601.09;5089093;28;20785;-48
2022/04/16 05:52:26;;;;;;;20.30;8.50;;;;;;;20.03;35.37;99599.75;5110599;28;20107;-51
2022/04/16 05:54:52;;;;;;;11.10;6.57;;;;;;;20.50;34.29;99597.84;5109949;28;20008;-47
2022/04/16 05:57:19;;;;;;;12.82;8.25;;;;;;;20.62;34.38;99587.59;5110322;28;20035;-38
2022/04/16 05:59:45;;;;;;;10.15;7.00;;;;;;;20.96;33.93;99599.66;5110365;28;20027;-38
2022/04/16 06:02:10;;;;;;;12.95;8.30;;;;;;;21.18;33.38;99596.59;5110033;28;20155;-37
2022/04/16 06:04:36;;;;;;;10.43;6.45;;;;;;;21.77;32.59;99603.88;5110416;28;20028;-49
2022/04/16 06:07:02;;;;;;;10.15;5.65;;;;;;;21.92;31.94;99596.75;5110449;28;20047;-53
2022/04/16 06:09:28;;;;;;;11.35;5.53;;;;;;;22.05;31.87;99591.50;5110188;28;20050;-51
2022/04/16 06:12:00;;;;;;;11.00;5.70;;;;;;;22.21;31.60;99605.72;5109858;28;20031;-48
2022/04/16 06:14:26;;;;;;;10.02;5.68;;;;;;;22.56;31.28;99597.56;5110408;28;20023;-49
2022/04/16 06:16:51;;;;;;;11.35;6.40;;;;;;;22.65;30.70;99591.22;5110460;28;20036;-50
2022/04/16 06:19:17;;;;;;;12.48;7.30;;;;;;;23.11;30.05;99587.22;5110357;28;20483;-51
2022/04/16 06:21:42;;;;;;;10.15;4.82;;;;;;;23.21;29.49;99589.03;5110298;28;20034;-49
2022/04/16 06:24:07;;;;;;;8.38;5.13;;;;;;;23.36;29.08;99582.56;5109949;28;20023;-38
2022/04/16 06:26:33;;;;;;;7.32;4.50;;;;;;;23.50;29.28;99593.53;5110656;28;20172;-38
2022/04/16 06:28:58;;;;;;;9.98;4.60;;;;;;;23.07;29.92;99577.25;5092330;28;20410;-37
2022/04/16 06:31:24;;;;;;;8.07;4.28;;;;;;;23.40;29.26;99581.69;5110539;28;20024;-37
2022/04/16 06:33:49;;;;;;;9.07;4.43;;;;;;;23.77;28.85;99577.34;5110375;28;20030;-38
2022/04/16 06:36:14;;;;;;;7.60;4.30;;;;;;;23.70;29.38;99571.47;5110138;28;20421;-38
2022/04/16 06:38:40;;;;;;;12.00;5.40;;;;;;;23.61;29.46;99573.28;5110690;28;20058;-38
2022/04/16 06:41:05;;;;;;;9.48;5.13;;;;;;;24.13;29.02;99562.44;5110555;28;20112;-38
2022/04/16 06:43:31;;;;;;;7.38;4.50;;;;;;;24.07;29.60;99572.59;5110111;28;20137;-38
2022/04/16 06:45:56;;;;;;;8.18;4.95;;;;;;;24.74;29.97;99564.06;5109992;28;20770;-38
2022/04/16 06:48:22;;;;;;;13.60;10.48;;;;;;;25.28;28.14;99558.88;5110400;28;20110;-38
2022/04/16 06:50:48;;;;;;;49.58;29.17;;;;;;;25.33;28.71;99555.25;5110375;28;20027;-38
2022/04/16 06:53:13;;;;;;;12.77;6.28;;;;;;;25.21;28.67;99549.47;5110479;28;20015;-38
2022/04/16 06:55:38;;;;;;;11.43;5.30;;;;;;;24.94;30.75;99551.97;5109868;28;20572;-38
2022/04/16 06:58:04;;;;;;;7.32;4.75;;;;;;;25.33;29.06;99550.59;5110655;28;20381;-37
2022/04/16 07:00:30;;;;;;;12.77;6.85;;;;;;;25.46;29.43;99554.41;5110313;28;20028;-38
2022/04/16 07:02:55;;;;;;;8.88;5.00;;;;;;;25.88;27.93;99546.09;5110101;28;20103;-36
2022/04/16 07:05:21;;;;;;;8.32;4.90;;;;;;;25.99;27.16;99555.66;5091096;28;20028;-37
2022/04/16 07:07:46;;;;;;;11.00;4.82;;;;;;;25.25;27.80;99545.91;5110226;28;20049;-37
2022/04/16 07:10:12;;;;;;;8.45;5.10;;;;;;;25.16;28.04;99539.53;5110067;28;20502;-37
2022/04/16 07:12:38;;;;;;;10.10;4.63;;;;;;;25.38;27.27;99535.25;5109395;28;20479;-37
2022/04/16 07:15:05;;;;;;;10.18;6.35;;;;;;;25.56;26.99;99534.31;5090758;28;20162;-37
2022/04/16 07:17:30;;;;;;;13.32;6.35;;;;;;;25.80;26.68;99533.19;5109212;28;20023;-37
2022/04/16 07:19:56;;;;;;;10.68;5.95;;;;;;;25.79;26.85;99534.31;5109546;28;20019;-37
2022/04/16 07:22:21;;;;;;;8.57;4.50;;;;;;;26.27;26.29;99528.22;5109239;28;20027;-38
2022/04/16 07:24:48;;;;;;;8.57;4.25;;;;;;;25.75;27.04;99528.66;5109390;28;20415;-38
2022/04/16 07:27:14;;;;;;;7.63;4.32;;;;;;;25.65;27.34;99528.94;5109157;28;20023;-38
2022/04/16 07:29:40;;;;;;;8.88;4.20;;;;;;;26.08;25.98;99523.81;5109338;28;20023;-38
2022/04/16 07:32:06;;;;;;;9.27;4.68;;;;;;;25.92;25.73;99523.38;5109019;28;20491;-37
2022/04/16 07:34:31;;;;;;;12.70;4.55;;;;;;;25.35;26.92;99521.16;5109932;28;20076;-38
2022/04/16 07:36:56;;;;;;;7.63;4.47;;;;;;;25.40;26.63;99508.53;5110118;28;20043;-38
2022/04/16 07:39:22;;;;;;;8.52;4.97;;;;;;;25.64;26.79;99509.03;5110195;28;20510;-37
2022/04/16 07:41:51;;;;;;;12.90;9.20;;;;;;;25.80;26.76;99514.94;5109891;28;20016;-36
2022/04/16 07:44:17;;;;;;;7.00;4.40;;;;;;;25.61;26.19;99506.13;5109600;28;20154;-38
2022/04/16 07:46:42;;;;;;;7.22;4.22;;;;;;;25.74;25.99;99506.06;5110281;28;20131;-37
2022/04/16 07:49:07;;;;;;;8.23;3.88;;;;;;;25.27;27.17;99499.31;5110016;28;20016;-37
2022/04/16 07:51:33;;;;;;;32.55;22.13;;;;;;;25.26;26.72;99508.56;5110391;28;20461;-37
2022/04/16 07:53:59;;;;;;;30.90;21.55;;;;;;;24.95;27.00;99507.28;5109950;28;20023;-37
2022/04/16 07:56:25;;;;;;;8.65;4.82;;;;;;;24.74;27.28;99500.69;5109862;28;20111;-37
2022/04/16 07:58:51;;;;;;;6.68;4.18;;;;;;;25.05;27.37;99508.19;5109874;28;20411;-37
2022/04/16 08:01:17;;;;;;;5.07;4.25;;;;;;;24.88;27.92;99503.38;5112050;28;20020;-38
2022/04/16 08:03:43;;;;;;;9.30;4.47;;;;;;;25.03;27.01;99513.13;5113976;28;20118;-38
2022/04/16 08:06:08;;;;;;;9.98;4.30;;;;;;;25.01;26.91;99504.47;5113698;28;20479;-38
2022/04/16 08:08:33;;;;;;;10.27;4.43;;;;;;;25.31;27.05;99509.25;5113312;28;20093;-37
2022/04/16 08:10:59;;;;;;;8.13;4.20;;;;;;;24.91;27.56;99505.50;5113255;28;20058;-39
2022/04/16 08:13:24;;;;;;;9.23;4.22;;;;;;;25.83;26.48;99511.56;5113511;28;20411;-37
2022/04/16 08:15:51;;;;;;;8.02;4.90;;;;;;;26.13;26.28;99503.75;5113249;28;20031;-37
2022/04/16 08:18:17;;;;;;;5.93;4.03;;;;;;;26.63;25.46;99486.34;5113572;28;20026;-37
2022/04/16 08:20:43;;;;;;;9.75;4.20;;;;;;;25.94;25.85;99502.06;5112743;28;20443;-37
2022/04/16 08:23:08;;;;;;;6.53;4.13;;;;;;;25.97;25.63;99495.19;5113167;28;20106;-37
2022/04/16 08:28:01;;;;;;;6.20;4.20;;;;;;;26.53;24.93;99501.84;5113278;28;20060;-38
2022/04/16 08:30:28;;;;;;;10.80;4.50;;;;;;;26.22;25.40;99495.63;5112968;28;20020;-38
2022/04/16 08:32:53;;;;;;;10.10;4.70;;;;;;;26.26;26.14;99491.97;5113399;28;20068;-38
2022/04/16 08:35:19;;;;;;;13.00;4.82;;;;;;;26.68;25.95;99492.44;5112821;28;20039;-38
2022/04/16 08:37:46;;;;;;;13.82;4.57;;;;;;;26.17;26.70;99491.09;5112905;28;20111;-36
2022/04/16 08:40:12;;;;;;;10.13;4.90;;;;;;;26.14;27.37;99486.28;5112742;28;20051;-36
2022/04/16 08:42:39;;;;;;;12.35;5.00;;;;;;;25.90;27.70;99486.63;5112431;28;20531;-37
2022/04/16 08:45:07;;;;;;;8.95;5.13;;;;;;;25.67;28.51;99491.28;5112689;28;20068;-37
2022/04/16 08:47:33;;;;;;;12.98;5.20;;;;;;;25.29;29.13;99481.53;5113027;28;20464;-37
2022/04/16 08:49:59;;;;;;;13.18;5.03;;;;;;;25.84;28.03;99488.66;5112330;28;20111;-38
2022/04/16 08:52:29;;;;;;;10.27;4.97;;;;;;;26.00;27.82;99480.13;5112760;28;20172;-38
2022/04/16 08:54:55;;;;;;;11.75;5.20;;;;;;;26.23;28.12;99470.75;5112085;28;20027;-37
2022/04/16 08:57:21;;;;;;;8.45;4.78;;;;;;;26.81;27.79;99477.09;5112726;28;20024;-37
2022/04/16 08:59:51;;;;;;;8.45;4.90;;;;;;;27.04;26.94;99468.75;5112260;28;20563;-37
2022/04/16 09:02:19;;;;;;;8.20;4.53;;;;;;;27.30;26.20;99468.78;5112111;28;20038;-37
2022/04/16 09:04:47;;;;;;;5.28;4.25;;;;;;;27.63;25.85;99460.88;5112177;28;20130;-37
2022/04/16 09:07:12;;;;;;;8.98;4.57;;;;;;;28.02;25.21;99456.31;5112202;28;20031;-36
2022/04/16 09:09:38;;;;;;;8.07;4.40;;;;;;;28.78;24.63;99457.41;5112165;28;20043;-36
2022/04/16 09:12:15;;;;;;;13.05;4.70;;;;;;;29.13;24.46;99448.97;5111579;28;20097;-37
2022/04/16 09:14:44;;;;;;;9.88;4.90;;;;;;;29.32;23.64;99450.41;5111827;28;20027;-37
2022/04/16 09:17:09;;;;;;;10.73;4.70;;;;;;;28.89;24.19;99446.88;5112751;28;20265;-37
2022/04/16 09:19:35;;;;;;;8.98;4.40;;;;;;;29.48;23.75;99445.91;5112022;28;20048;-37
2022/04/16 09:22:01;;;;;;;6.88;4.30;;;;;;;30.38;22.67;99438.00;5112555;28;20390;-39
2022/04/16 09:24:26;;;;;;;8.05;4.50;;;;;;;30.98;21.76;99432.81;5111931;28;20084;-38
2022/04/16 09:26:53;;;;;;;13.00;4.43;;;;;;;30.25;22.08;99431.69;5112315;28;20036;-37
2022/04/16 09:29:19;;;;;;;10.57;4.20;;;;;;;30.22;22.06;99432.38;5112025;28;20035;-38
2022/04/16 09:31:47;;;;;;;9.10;4.22;;;;;;;30.73;22.11;99432.00;5111817;28;20023;-37
2022/04/16 09:34:18;;;;;;;13.27;4.72;;;;;;;30.37;21.72;99426.22;5111559;28;20051;-39
2022/04/16 09:36:44;;;;;;;7.82;4.28;;;;;;;29.83;22.67;99423.66;5111693;28;20457;-37
2022/04/16 09:39:13;;;;;;;7.50;4.10;;;;;;;30.11;22.01;99412.03;5111697;28;20036;-38
2022/04/16 09:41:41;;;;;;;8.52;4.55;;;;;;;30.54;21.93;99425.19;5111430;28;20132;-37
2022/04/16 09:44:20;;;;;;;8.30;4.50;;;;;;;30.32;21.60;99414.69;5110923;28;20018;-36
2022/04/16 09:46:46;;;;;;;9.30;4.70;;;;;;;30.17;22.01;99407.91;5111356;28;20032;-37
2022/04/16 09:49:13;;;;;;;5.63;4.47;;;;;;;29.25;23.46;99412.63;5111665;28;20106;-37
2022/04/16 09:51:42;;;;;;;8.63;4.38;;;;;;;28.37;24.02;99395.97;5111407;28;20374;-37
2022/04/16 09:54:08;;;;;;;;;;;;;;;28.05;24.91;99409.16;5111832;28;20061;-37
2022/04/16 09:56:36;;;;;;;12.90;4.45;;;;;;;28.74;23.81;99401.72;5111114;28;20074;-37
2022/04/16 09:59:09;;;;;;;9.93;4.78;;;;;;;29.62;22.39;99402.56;5111372;28;20103;-38
2022/04/16 10:01:41;;;;;;;11.18;4.90;;;;;;;28.65;23.55;99404.53;5111245;28;20102;-38
2022/04/16 10:04:07;;;;;;;8.85;4.55;;;;;;;28.81;23.11;99409.41;5111519;28;20116;-38
2022/04/16 10:06:34;;;;;;;6.55;4.40;;;;;;;29.41;23.17;99402.59;5111106;28;20023;-38
2022/04/16 10:09:13;;;;;;;6.63;4.18;;;;;;;28.80;23.21;99394.91;5111054;28;20077;-38
2022/04/16 10:14:45;;;;;;;13.85;4.35;;;;;;;30.83;21.27;99390.34;5110972;28;20089;-37
2022/04/16 10:17:35;;;;;;;8.38;4.30;;;;;;;31.31;20.17;99385.81;5110574;28;20131;-38
2022/04/16 10:20:10;;;;;;;9.73;4.55;;;;;;;31.26;21.28;99386.06;5110779;28;20019;-38
2022/04/16 10:22:36;;;;;;;7.75;4.43;;;;;;;30.68;21.42;99380.88;5110619;28;20062;-38
2022/04/16 10:25:03;;;;;;;9.35;4.53;;;;;;;31.39;20.95;99384.06;5110163;28;20104;-38
2022/04/16 10:27:42;;;;;;;8.75;4.78;;;;;;;30.69;21.87;99381.69;5110742;28;20024;-39
2022/04/16 10:30:12;;;;;;;10.65;4.22;;;;;;;31.38;20.98;99377.78;5110718;28;20483;-39
2022/04/16 10:32:39;;;;;;;7.57;4.00;;;;;;;31.67;20.29;99392.28;5110609;28;20242;-38
2022/04/16 10:35:06;;;;;;;7.13;4.05;;;;;;;31.41;19.39;99376.25;5110280;28;20027;-38
2022/04/16 10:37:40;;;;;;;6.25;3.90;;;;;;;31.36;19.27;99373.78;5110902;28;20460;-39
2022/04/16 10:40:23;;;;;;;6.95;4.13;;;;;;;31.12;19.89;99369.22;5110307;28;20076;-38
2022/04/16 10:42:58;;;;;;;5.55;4.30;;;;;;;30.49;19.93;99369.72;5110779;28;20100;-38
2022/04/16 10:45:25;;;;;;;5.85;3.85;;;;;;;31.41;19.76;99368.00;5110395;28;20088;-37
2022/04/16 10:47:53;;;;;;;10.07;4.63;;;;;;;32.33;19.47;99362.47;5110682;28;20042;-37
2022/04/16 10:50:20;;;;;;;8.82;4.47;;;;;;;32.17;19.32;99370.72;5091787;28;20507;-38
2022/04/16 10:53:00;;;;;;;9.55;3.78;;;;;;;32.40;18.66;99370.06;5110176;28;20483;-37
2022/04/16 10:55:36;;;;;;;6.45;3.17;;;;;;;31.72;18.23;99366.47;5110382;28;20028;-37
2022/04/16 10:58:06;;;;;;;8.38;3.53;;;;;;;32.56;17.02;99354.31;5110221;28;20486;-38
2022/04/16 11:00:45;;;;;;;5.38;3.35;;;;;;;31.57;17.49;99359.84;5110068;28;20035;-38
2022/04/16 11:03:13;;;;;;;5.70;3.00;;;;;;;31.81;16.29;99355.31;5110187;28;20131;-38
2022/04/16 11:05:43;;;;;;;5.82;3.30;;;;;;;32.13;17.33;99345.09;5110537;28;20070;-38
2022/04/16 11:08:11;;;;;;;5.90;3.45;;;;;;;32.02;17.56;99350.34;5110493;28;20028;-37
2022/04/16 11:10:38;;;;;;;10.90;3.30;;;;;;;31.87;16.73;99346.44;5110455;28;20055;-38
2022/04/16 11:13:05;;;;;;;4.97;3.17;;;;;;;30.71;17.82;99344.50;5110295;28;20122;-38
2022/04/16 11:15:30;;;;;;;7.00;3.17;;;;;;;31.18;17.85;99349.34;5109949;28;20035;-38
2022/04/16 11:17:57;;;;;;;4.63;3.15;;;;;;;31.21;18.63;99347.06;5110242;28;20153;-37
2022/04/16 11:20:23;;;;;;;7.68;3.28;;;;;;;30.97;19.18;99346.03;5110204;28;20031;-37
2022/04/16 11:22:49;;;;;;;5.25;3.30;;;;;;;30.52;19.32;99339.63;5109984;28;20016;-37
2022/04/16 11:25:14;;;;;;;3.70;3.15;;;;;;;30.38;18.82;99333.72;5110351;28;20121;-38
2022/04/16 11:36:19;;;;;;;4.93;2.92;;;;;;;28.08;19.43;99322.91;5111623;28;20070;-38
2022/04/16 11:38:45;;;;;;;5.20;2.92;;;;;;;28.48;19.02;99317.03;5114404;28;20043;-38
2022/04/16 11:41:12;;;;;;;6.05;3.15;;;;;;;28.08;20.42;99320.19;5114131;28;20078;-38
2022/04/16 11:43:51;;;;;;;4.97;3.10;;;;;;;27.73;20.68;99320.34;5113580;28;20024;-38
2022/04/16 11:46:16;;;;;;;5.10;3.00;;;;;;;27.37;21.68;99323.53;5113461;28;20366;-38
2022/04/16 11:48:49;;;;;;;5.38;2.90;;;;;;;28.12;20.90;99309.41;5113914;28;20026;-37
2022/04/16 11:51:16;;;;;;;8.13;3.00;;;;;;;28.44;20.48;99322.38;5113779;28;20020;-38